createdAt,value
2022-10-17T00:00:35.561Z,26.10
2022-10-17T00:03:58.373Z,22.20
2022-10-17T00:07:01.202Z,21.60
2022-10-17T00:10:05.824Z,22.00
2022-10-17T00:13:09.656Z,22.10
2022-10-17T00:16:12.506Z,20.40
2022-10-17T00:19:15.321Z,24.10
2022-10-17T00:22:18.205Z,21.40
2022-10-17T00:25:21.038Z,20.80
2022-10-17T00:28:23.888Z,19.00
2022-10-17T00:31:26.852Z,21.40
2022-10-17T00:34:31.191Z,21.90
2022-10-17T00:37:34.591Z,21.80
2022-10-17T00:40:37.491Z,21.10
2022-10-17T00:44:02.141Z,23.90
2022-10-17T00:47:08.511Z,20.20
2022-10-17T00:50:13.058Z,20.50
2022-10-17T00:53:16.849Z,23.00
2022-10-17T00:56:21.256Z,22.10
2022-10-17T00:59:25.032Z,23.80
2022-10-17T01:02:28.127Z,22.30
2022-10-17T01:05:31.251Z,21.10
2022-10-17T01:08:34.544Z,21.00
2022-10-17T01:11:56.973Z,22.10
2022-10-17T01:18:43.200Z,18.60
2022-10-17T01:22:10.158Z,23.30
2022-10-17T01:25:42.689Z,18.20
2022-10-17T01:29:13.255Z,19.20
2022-10-17T01:32:28.130Z,20.20
2022-10-17T01:35:48.568Z,19.90
2022-10-17T01:39:06.134Z,21.20
2022-10-17T01:42:27.408Z,21.50
2022-10-17T01:45:41.228Z,19.90
2022-10-17T01:48:46.250Z,22.60
2022-10-17T01:51:55.726Z,22.90
2022-10-17T01:55:06.975Z,18.70
2022-10-17T01:58:30.089Z,18.40
2022-10-17T02:01:37.506Z,18.70
2022-10-17T02:04:41.397Z,17.90
2022-10-17T02:07:44.302Z,19.90
2022-10-17T02:10:59.223Z,17.50
2022-10-17T02:14:25.104Z,21.00
2022-10-17T02:17:36.362Z,18.60
2022-10-17T02:20:49.642Z,18.60
2022-10-17T02:24:20.409Z,16.30
2022-10-17T02:27:35.358Z,19.50
2022-10-17T02:30:58.406Z,19.40
2022-10-17T02:34:05.074Z,17.70
2022-10-17T02:37:11.502Z,20.10
2022-10-17T02:40:17.587Z,18.50
2022-10-17T02:43:21.980Z,19.20
2022-10-17T02:46:28.014Z,24.10
2022-10-17T02:49:39.210Z,20.20
2022-10-17T02:52:58.120Z,16.60
2022-10-17T02:56:14.327Z,17.00
2022-10-17T02:59:20.771Z,20.30
2022-10-17T03:02:23.685Z,18.10
2022-10-17T03:05:29.144Z,17.80
2022-10-17T03:08:32.098Z,18.20
2022-10-17T03:11:36.308Z,18.00
2022-10-17T03:14:39.317Z,19.10
2022-10-17T03:17:42.932Z,19.60
2022-10-17T03:20:46.137Z,19.70
2022-10-17T03:23:49.131Z,17.30
2022-10-17T03:26:52.459Z,19.00
2022-10-17T03:29:55.694Z,20.00
2022-10-17T03:32:59.514Z,20.60
2022-10-17T03:36:11.643Z,20.20
2022-10-17T03:39:14.723Z,21.60
2022-10-17T03:42:17.714Z,21.40
2022-10-17T03:45:20.850Z,21.70
2022-10-17T03:48:41.433Z,19.50
2022-10-17T03:51:44.549Z,21.00
2022-10-17T03:54:51.014Z,25.00
2022-10-17T03:57:54.196Z,20.80
2022-10-17T04:00:57.238Z,21.70
2022-10-17T04:04:00.234Z,22.30
2022-10-17T04:07:06.058Z,21.60
2022-10-17T04:10:10.993Z,19.30
2022-10-17T04:13:14.227Z,22.30
2022-10-17T04:16:17.362Z,21.10
2022-10-17T04:19:34.238Z,24.00
2022-10-17T04:22:37.484Z,19.40
2022-10-17T04:25:40.603Z,23.80
2022-10-17T04:28:43.533Z,23.10
2022-10-17T04:31:46.642Z,25.00
2022-10-17T04:34:59.602Z,23.40
2022-10-17T04:38:03.602Z,23.00
2022-10-17T04:41:10.277Z,24.10
2022-10-17T04:44:13.217Z,24.70
2022-10-17T04:47:19.074Z,22.90
2022-10-17T04:50:22.255Z,24.00
2022-10-17T04:53:42.587Z,22.10
2022-10-17T04:56:47.206Z,21.40
2022-10-17T04:59:50.133Z,20.20
2022-10-17T05:03:19.048Z,22.00
2022-10-17T05:06:25.070Z,25.30
2022-10-17T05:09:43.101Z,21.00
2022-10-17T05:12:48.157Z,24.20
2022-10-17T05:15:51.957Z,24.50
2022-10-17T05:18:56.783Z,21.60
2022-10-17T05:22:02.925Z,19.40
2022-10-17T05:25:06.473Z,22.10
2022-10-17T05:28:09.777Z,19.90
2022-10-17T05:31:14.134Z,21.90
2022-10-17T05:34:18.018Z,25.80
2022-10-17T05:37:20.970Z,28.10
2022-10-17T05:40:26.276Z,30.30
2022-10-17T05:43:30.127Z,31.10
2022-10-17T05:46:33.023Z,28.70
2022-10-17T05:49:52.438Z,28.60
2022-10-17T05:53:03.439Z,33.00
2022-10-17T05:56:08.994Z,31.30
2022-10-17T05:59:12.833Z,31.50
2022-10-17T06:02:24.863Z,32.20
2022-10-17T06:05:27.873Z,39.10
2022-10-17T06:08:32.324Z,35.60
2022-10-17T06:11:36.368Z,36.90
2022-10-17T06:14:39.253Z,30.50
2022-10-17T06:17:42.734Z,29.30
2022-10-17T06:20:46.219Z,31.50
2022-10-17T06:23:51.559Z,27.70
2022-10-17T06:27:11.008Z,30.30
2022-10-17T06:30:15.345Z,29.20
2022-10-17T06:33:18.313Z,35.00
2022-10-17T06:36:21.384Z,30.40
2022-10-17T06:39:26.941Z,26.20
2022-10-17T06:42:56.411Z,29.10
2022-10-17T06:46:01.783Z,27.90
2022-10-17T06:49:13.029Z,25.70
2022-10-17T06:52:34.887Z,26.90
2022-10-17T06:56:01.611Z,25.20
2022-10-17T06:59:33.471Z,23.90
2022-10-17T07:02:46.337Z,21.80
2022-10-17T07:05:53.495Z,19.90
2022-10-17T07:08:56.385Z,25.60
2022-10-17T07:12:00.636Z,23.50
2022-10-17T07:15:04.987Z,21.10
2022-10-17T07:18:08.282Z,21.90
2022-10-17T07:21:11.327Z,18.80
2022-10-17T07:24:16.072Z,18.90
2022-10-17T07:27:23.326Z,26.10
2022-10-17T07:30:27.263Z,18.80
2022-10-17T07:33:38.613Z,19.70
2022-10-17T07:36:41.709Z,19.40
2022-10-17T07:39:44.976Z,14.90
2022-10-17T07:42:48.327Z,16.20
2022-10-17T07:45:52.600Z,14.80
2022-10-17T07:48:55.415Z,16.20
2022-10-17T07:51:58.491Z,14.50
2022-10-17T07:55:01.548Z,13.70
2022-10-17T07:58:04.429Z,14.80
2022-10-17T08:01:14.751Z,13.20
2022-10-17T08:04:18.553Z,14.90
2022-10-17T08:07:25.312Z,13.10
2022-10-17T08:10:31.339Z,14.30
2022-10-17T08:13:34.579Z,12.10
2022-10-17T08:16:37.506Z,12.80
2022-10-17T08:19:40.812Z,15.70
2022-10-17T08:22:43.785Z,12.40
2022-10-17T08:25:47.047Z,13.00
2022-10-17T08:28:49.906Z,12.50
2022-10-17T08:31:56.289Z,13.10
2022-10-17T08:35:04.460Z,13.50
2022-10-17T08:38:09.950Z,12.50
2022-10-17T08:41:36.568Z,17.10
2022-10-17T08:44:57.425Z,17.40
2022-10-17T08:48:02.613Z,13.50
2022-10-17T08:59:59.696Z,12.70
2022-10-17T09:03:16.742Z,13.30
2022-10-17T09:06:29.978Z,12.90
2022-10-17T09:09:50.144Z,14.90
2022-10-17T09:13:10.540Z,15.70
2022-10-17T09:16:36.882Z,15.30
2022-10-17T09:19:43.575Z,16.60
2022-10-17T09:23:06.015Z,21.50
2022-10-17T09:26:11.152Z,12.50
2022-10-17T09:29:21.384Z,14.10
2022-10-17T09:32:24.657Z,19.10
2022-10-17T09:35:29.616Z,15.50
2022-10-17T09:38:39.766Z,16.00
2022-10-17T09:41:51.437Z,14.50
2022-10-17T09:45:16.099Z,14.30
2022-10-17T09:48:34.476Z,13.60
2022-10-17T09:51:38.090Z,16.40
2022-10-17T09:54:52.661Z,13.80
2022-10-17T09:58:10.111Z,14.10
2022-10-17T10:01:23.996Z,14.00
2022-10-17T10:04:30.244Z,22.10
2022-10-17T10:07:51.605Z,15.20
2022-10-17T10:11:00.095Z,13.10
2022-10-17T10:14:34.035Z,13.20
2022-10-17T10:18:26.178Z,12.70
2022-10-17T10:21:28.183Z,17.60
2022-10-17T10:25:17.087Z,17.80
2022-10-17T10:28:25.678Z,16.20
2022-10-17T10:31:39.197Z,14.80
2022-10-17T10:35:18.636Z,13.50
2022-10-17T10:38:22.452Z,14.30
2022-10-17T10:41:48.167Z,14.80
2022-10-17T10:44:56.036Z,12.80
2022-10-17T10:48:19.168Z,15.80
2022-10-17T10:51:27.089Z,13.10
2022-10-17T10:54:36.049Z,13.20
2022-10-17T10:57:44.348Z,12.80
2022-10-17T11:00:47.291Z,13.60
2022-10-17T11:04:23.043Z,17.10
2022-10-17T11:07:46.408Z,11.70
2022-10-17T11:11:13.171Z,12.70
2022-10-17T11:14:31.266Z,13.00
2022-10-17T11:17:56.325Z,15.10
2022-10-17T11:21:16.119Z,13.20
2022-10-17T11:24:29.341Z,20.00
2022-10-17T11:27:33.375Z,14.10
2022-10-17T11:30:45.999Z,14.90
2022-10-17T11:33:53.487Z,11.70
2022-10-17T11:37:09.097Z,12.40
2022-10-17T11:40:44.517Z,11.50
2022-10-17T11:44:02.747Z,17.00
2022-10-17T11:47:25.659Z,13.80
2022-10-17T11:54:22.733Z,10.50
2022-10-17T11:57:44.794Z,12.50
2022-10-17T12:00:56.122Z,10.20
2022-10-17T12:04:06.786Z,12.00
2022-10-17T12:07:21.694Z,11.30
2022-10-17T12:10:47.928Z,11.10
2022-10-17T12:13:53.885Z,9.30
2022-10-17T12:16:55.476Z,10.30
2022-10-17T12:20:25.024Z,11.90
2022-10-17T12:23:28.361Z,10.80
2022-10-17T12:26:30.259Z,13.20
2022-10-17T12:29:32.038Z,13.30
2022-10-17T12:32:46.848Z,13.20
2022-10-17T12:36:28.082Z,13.40
2022-10-17T12:39:29.549Z,13.40
2022-10-17T12:42:32.557Z,10.20
2022-10-17T12:46:02.911Z,9.70
2022-10-17T12:49:20.343Z,10.30
2022-10-17T12:52:34.812Z,9.50
2022-10-17T12:55:36.710Z,42.10
2022-10-17T12:58:48.828Z,18.40
2022-10-17T13:02:01.179Z,10.10
2022-10-17T13:05:18.797Z,12.00
2022-10-17T13:08:34.041Z,10.90
2022-10-17T13:12:21.327Z,10.70
2022-10-17T13:15:23.305Z,11.50
2022-10-17T13:26:45.495Z,10.00
2022-10-17T13:29:48.008Z,11.70
2022-10-17T13:32:49.829Z,9.60
2022-10-17T13:36:06.939Z,10.10
2022-10-17T13:39:14.993Z,10.40
2022-10-17T13:42:30.548Z,8.40
2022-10-17T13:45:37.674Z,8.70
2022-10-17T13:54:55.396Z,8.90
2022-10-17T14:04:19.472Z,8.00
2022-10-17T14:18:20.235Z,13.00
2022-10-17T14:21:40.900Z,11.80
2022-10-17T14:24:47.070Z,10.00
2022-10-17T14:28:02.293Z,9.90
2022-10-17T14:31:20.274Z,21.10
2022-10-17T14:34:29.923Z,11.40
2022-10-17T14:37:46.421Z,9.20
2022-10-17T14:40:51.750Z,17.50
2022-10-17T14:44:00.926Z,12.20
2022-10-17T14:47:30.906Z,10.80
2022-10-17T14:50:31.976Z,11.10
2022-10-17T14:53:34.965Z,15.00
2022-10-17T14:56:41.801Z,13.40
2022-10-17T15:00:00.167Z,18.40
2022-10-17T15:03:03.068Z,20.00
2022-10-17T15:06:24.636Z,42.20
2022-10-17T15:09:29.013Z,19.20
2022-10-17T15:12:32.883Z,13.70
2022-10-17T15:15:37.390Z,10.70
2022-10-17T15:18:40.234Z,10.20
2022-10-17T15:21:46.949Z,13.60
2022-10-17T15:24:50.516Z,18.40
2022-10-17T15:27:54.387Z,19.60
2022-10-17T15:30:57.249Z,16.30
2022-10-17T15:34:00.146Z,22.40
2022-10-17T15:37:04.799Z,42.40
2022-10-17T15:40:14.686Z,106.10
2022-10-17T15:43:19.911Z,166.30
2022-10-17T15:46:28.778Z,143.60
2022-10-17T15:49:31.606Z,86.80
2022-10-17T15:52:35.409Z,73.20
2022-10-17T15:55:38.299Z,71.90
2022-10-17T15:58:41.141Z,60.30
2022-10-17T16:01:44.660Z,48.40
2022-10-17T16:04:49.389Z,36.00
2022-10-17T16:07:53.692Z,30.30
2022-10-17T16:10:56.649Z,36.80
2022-10-17T16:14:02.385Z,33.00
2022-10-17T16:17:05.241Z,35.50
2022-10-17T16:20:08.405Z,32.30
2022-10-17T16:23:13.408Z,33.70
2022-10-17T16:26:16.370Z,47.50
2022-10-17T16:29:19.162Z,62.70
2022-10-17T16:32:22.044Z,60.90
2022-10-17T16:35:31.867Z,66.50
2022-10-17T16:38:38.053Z,66.40
2022-10-17T16:41:41.292Z,71.20
2022-10-17T16:44:44.638Z,64.40
2022-10-17T16:47:50.776Z,52.20
2022-10-17T16:50:54.082Z,56.30
2022-10-17T16:54:00.223Z,82.60
2022-10-17T16:57:05.814Z,71.30
2022-10-17T17:00:12.159Z,57.40
2022-10-17T17:03:15.908Z,43.80
2022-10-17T17:06:29.497Z,53.80
2022-10-17T17:09:32.666Z,53.80
2022-10-17T17:12:40.203Z,46.40
2022-10-17T17:18:51.472Z,44.90
2022-10-17T17:21:54.488Z,44.70
2022-10-17T17:24:57.478Z,53.50
2022-10-17T17:28:03.454Z,43.70
2022-10-17T17:31:09.191Z,42.20
2022-10-17T17:34:14.345Z,33.80
2022-10-17T17:37:20.211Z,35.80
2022-10-17T17:40:23.318Z,38.10
2022-10-17T17:43:26.283Z,38.30
2022-10-17T17:46:29.255Z,38.20
2022-10-17T17:49:32.400Z,36.90
2022-10-17T17:52:35.581Z,41.00
2022-10-17T17:55:41.010Z,34.10
2022-10-17T17:59:01.559Z,31.60
2022-10-17T18:02:07.050Z,83.50
2022-10-17T18:05:10.308Z,131.20
2022-10-17T18:08:13.271Z,102.50
2022-10-17T18:11:18.408Z,74.00
2022-10-17T18:14:24.261Z,58.90
2022-10-17T18:17:27.738Z,47.60
2022-10-17T18:20:30.515Z,37.00
2022-10-17T18:23:37.584Z,31.90
2022-10-17T18:26:40.405Z,26.30
2022-10-17T18:29:46.243Z,29.70
2022-10-17T18:32:49.095Z,28.90
2022-10-17T18:35:51.915Z,29.50
2022-10-17T18:38:55.567Z,27.60
2022-10-17T18:41:58.456Z,30.00
2022-10-17T18:45:05.914Z,32.20
2022-10-17T18:48:10.327Z,34.60
2022-10-17T18:51:15.433Z,31.20
2022-10-17T18:54:21.445Z,33.60
2022-10-17T18:57:26.173Z,31.80
2022-10-17T19:00:31.838Z,30.60
2022-10-17T19:03:34.903Z,27.70
2022-10-17T19:06:38.897Z,30.90
2022-10-17T19:09:43.601Z,32.80
2022-10-17T19:12:47.561Z,36.90
2022-10-17T19:15:53.753Z,35.80
2022-10-17T19:18:59.219Z,29.90
2022-10-17T19:22:03.574Z,27.50
2022-10-17T19:25:07.498Z,25.10
2022-10-17T19:28:10.553Z,20.70
2022-10-17T19:31:16.977Z,24.20
2022-10-17T19:34:20.881Z,24.30
2022-10-17T19:37:24.036Z,20.50
2022-10-17T19:40:27.594Z,21.70
2022-10-17T19:43:30.991Z,20.00
2022-10-17T19:46:37.784Z,20.50
2022-10-17T19:49:47.692Z,20.50
2022-10-17T19:52:54.686Z,20.10
2022-10-17T19:55:58.374Z,21.30
2022-10-17T19:59:02.464Z,18.50
2022-10-17T20:02:06.198Z,19.20
2022-10-17T20:05:18.389Z,22.90
2022-10-17T20:08:21.954Z,21.20
2022-10-17T20:11:27.320Z,19.00
2022-10-17T20:14:35.226Z,21.90
2022-10-17T20:17:42.659Z,19.50
2022-10-17T20:20:48.053Z,22.10
2022-10-17T20:23:51.877Z,21.50
2022-10-17T20:26:54.928Z,19.00
2022-10-17T20:30:01.788Z,20.80
2022-10-17T20:33:07.923Z,18.70
2022-10-17T20:36:13.165Z,18.60
2022-10-17T20:39:19.965Z,16.80
2022-10-17T20:42:22.829Z,19.20
2022-10-17T20:45:37.703Z,19.50
2022-10-17T20:48:55.306Z,18.60
2022-10-17T20:52:01.540Z,15.60
2022-10-17T20:55:05.018Z,18.50
2022-10-17T20:58:14.501Z,18.40
2022-10-17T21:01:18.129Z,17.50
2022-10-17T21:04:44.610Z,19.60
2022-10-17T21:07:49.859Z,18.40
2022-10-17T21:11:10.200Z,17.30
2022-10-17T21:14:16.842Z,15.70
2022-10-17T21:17:21.851Z,15.40
2022-10-17T21:20:27.219Z,16.60
2022-10-17T21:23:30.426Z,17.90
2022-10-17T21:26:37.310Z,15.60
2022-10-17T21:29:41.728Z,14.30
2022-10-17T21:32:51.608Z,16.80
2022-10-17T21:35:55.341Z,14.10
2022-10-17T21:39:00.188Z,16.20
2022-10-17T21:42:06.122Z,14.40
2022-10-17T21:45:15.369Z,13.70
2022-10-17T21:48:23.040Z,12.10
2022-10-17T21:51:26.948Z,13.40
2022-10-17T21:54:29.849Z,12.20
2022-10-17T21:57:32.759Z,13.20
2022-10-17T22:00:35.539Z,15.50
2022-10-17T22:03:44.088Z,14.50
2022-10-17T22:06:51.363Z,14.10
2022-10-17T22:09:54.286Z,16.20
2022-10-17T22:12:57.391Z,14.70
2022-10-17T22:16:01.736Z,13.80
2022-10-17T22:19:06.772Z,17.00
2022-10-17T22:22:09.839Z,20.20
2022-10-17T22:25:12.754Z,16.10
2022-10-17T22:28:15.755Z,16.50
2022-10-17T22:31:19.509Z,18.60
2022-10-17T22:34:22.388Z,18.10
2022-10-17T22:37:25.268Z,17.70
2022-10-17T22:40:28.165Z,15.90
2022-10-17T22:43:31.532Z,15.20
2022-10-17T22:46:37.051Z,16.10
2022-10-17T22:49:39.948Z,12.90
2022-10-17T22:52:42.871Z,11.80
2022-10-17T22:55:56.254Z,12.00
2022-10-17T22:58:59.192Z,10.00
2022-10-17T23:02:02.250Z,11.80
2022-10-17T23:05:07.455Z,11.00
2022-10-17T23:08:11.413Z,11.50
2022-10-17T23:11:14.360Z,14.20
2022-10-17T23:14:17.361Z,11.60
2022-10-17T23:17:20.255Z,13.00
2022-10-17T23:20:23.166Z,12.50
2022-10-17T23:23:26.249Z,11.60
2022-10-17T23:26:29.124Z,12.30
2022-10-17T23:29:33.376Z,13.20
2022-10-17T23:32:36.244Z,14.30
2022-10-17T23:35:39.166Z,15.40
2022-10-17T23:38:43.442Z,12.10
2022-10-17T23:41:46.521Z,14.00
2022-10-17T23:44:49.477Z,12.60
2022-10-17T23:47:52.341Z,13.30
2022-10-17T23:50:56.105Z,13.00
2022-10-17T23:53:59.260Z,13.80
2022-10-17T23:57:02.211Z,16.20
